createdAt,value
2019-05-14T00:01:31.299Z,9.73
2019-05-14T00:04:02.076Z,1.47
2019-05-14T00:06:33.161Z,1.70
2019-05-14T00:09:06.778Z,0.70
2019-05-14T00:11:37.572Z,1.87
2019-05-14T00:14:08.513Z,5.33
2019-05-14T00:16:39.403Z,1.80
2019-05-14T00:19:11.824Z,1.10
2019-05-14T00:21:42.595Z,2.67
2019-05-14T00:24:13.311Z,1.50
2019-05-14T00:26:44.083Z,2.00
2019-05-14T00:29:16.164Z,1.63
2019-05-14T00:31:46.902Z,2.70
2019-05-14T00:34:17.720Z,1.33
2019-05-14T00:36:48.450Z,3.20
2019-05-14T00:39:21.329Z,3.77
2019-05-14T00:41:52.113Z,1.27
2019-05-14T00:44:23.036Z,0.83
2019-05-14T00:46:54.906Z,1.03
2019-05-14T00:49:25.833Z,0.97
2019-05-14T00:51:56.672Z,1.17
2019-05-14T00:54:27.482Z,1.43
2019-05-14T00:57:01.444Z,0.83
2019-05-14T00:59:32.351Z,2.20
2019-05-14T01:02:03.295Z,2.80
2019-05-14T01:04:34.327Z,3.33
2019-05-14T01:07:05.031Z,2.27
2019-05-14T01:09:36.372Z,2.23
2019-05-14T01:12:07.707Z,2.97
2019-05-14T01:14:38.430Z,1.27
2019-05-14T01:17:11.282Z,1.63
2019-05-14T01:19:42.680Z,1.40
2019-05-14T01:22:13.550Z,2.90
2019-05-14T01:24:44.394Z,1.13
2019-05-14T01:27:16.757Z,1.20
2019-05-14T01:29:47.760Z,1.47
2019-05-14T01:32:18.533Z,0.80
2019-05-14T01:34:49.403Z,3.00
2019-05-14T01:37:21.986Z,1.10
2019-05-14T01:39:52.884Z,1.83
2019-05-14T01:42:23.679Z,1.00
2019-05-14T01:44:54.545Z,1.67
2019-05-14T01:47:27.238Z,1.47
2019-05-14T01:49:57.980Z,3.80
2019-05-14T01:52:28.758Z,2.37
2019-05-14T01:55:01.993Z,1.87
2019-05-14T01:57:32.068Z,1.43
2019-05-14T02:00:02.944Z,2.00
2019-05-14T02:02:33.980Z,3.27
2019-05-14T02:05:07.047Z,1.43
2019-05-14T02:07:39.135Z,1.13
2019-05-14T02:10:11.616Z,1.80
2019-05-14T02:12:42.577Z,5.13
2019-05-14T02:15:15.522Z,2.13
2019-05-14T02:17:48.521Z,3.30
2019-05-14T02:20:21.546Z,2.20
2019-05-14T02:22:52.532Z,1.47
2019-05-14T02:25:23.406Z,0.97
2019-05-14T02:27:55.637Z,6.90
2019-05-14T02:30:40.826Z,1.20
2019-05-14T02:32:59.618Z,4.20
2019-05-14T02:35:30.604Z,13.50
2019-05-14T02:38:02.617Z,1.87
2019-05-14T02:40:33.471Z,1.30
2019-05-14T02:43:04.546Z,2.20
2019-05-14T02:45:35.302Z,2.13
2019-05-14T02:48:09.438Z,1.90
2019-05-14T02:50:39.688Z,3.00
2019-05-14T02:53:10.875Z,1.77
2019-05-14T02:55:41.650Z,4.93
2019-05-14T02:58:12.493Z,3.27
2019-05-14T03:00:43.220Z,2.07
2019-05-14T03:03:14.007Z,2.43
2019-05-14T03:05:45.405Z,2.63
2019-05-14T03:08:22.619Z,1.70
2019-05-14T03:10:54.489Z,3.60
2019-05-14T03:13:25.313Z,1.83
2019-05-14T03:15:59.049Z,3.57
2019-05-14T03:18:30.052Z,2.37
2019-05-14T03:21:01.406Z,1.97
2019-05-14T03:23:32.409Z,2.17
2019-05-14T03:26:03.177Z,1.53
2019-05-14T03:28:34.115Z,1.70
2019-05-14T03:31:05.160Z,3.87
2019-05-14T03:33:35.992Z,5.17
2019-05-14T03:36:11.396Z,2.33
2019-05-14T03:38:40.429Z,6.77
2019-05-14T03:41:14.060Z,1.43
2019-05-14T03:43:43.828Z,4.07
2019-05-14T03:46:14.643Z,1.30
2019-05-14T03:48:49.237Z,3.20
2019-05-14T03:51:20.449Z,4.70
2019-05-14T03:54:01.158Z,2.73
2019-05-14T03:56:23.644Z,3.30
2019-05-14T03:58:59.664Z,6.57
2019-05-14T04:01:29.907Z,3.27
2019-05-14T04:04:00.942Z,1.93
2019-05-14T04:06:32.481Z,4.00
2019-05-14T04:09:09.467Z,1.30
2019-05-14T04:11:40.737Z,2.00
2019-05-14T04:14:13.910Z,5.37
2019-05-14T04:17:01.406Z,5.10
2019-05-14T04:19:21.745Z,2.80
2019-05-14T04:21:53.297Z,5.80
2019-05-14T04:24:25.495Z,2.70
2019-05-14T04:27:07.514Z,5.93
2019-05-14T04:29:31.325Z,8.10
2019-05-14T04:32:03.845Z,1.67
2019-05-14T04:34:35.025Z,2.20
2019-05-14T04:37:09.782Z,2.30
2019-05-14T04:39:40.543Z,4.67
2019-05-14T04:42:11.355Z,5.17
2019-05-14T04:44:42.149Z,1.63
2019-05-14T04:47:27.954Z,3.47
2019-05-14T04:49:50.203Z,2.43
2019-05-14T04:52:20.458Z,5.83
2019-05-14T04:54:52.723Z,4.53
2019-05-14T04:57:25.625Z,3.57
2019-05-14T04:59:59.630Z,4.57
2019-05-14T05:02:30.428Z,2.17
2019-05-14T05:05:01.918Z,3.27
2019-05-14T05:07:32.312Z,2.57
2019-05-14T05:10:03.332Z,3.30
2019-05-14T05:12:34.183Z,2.20
2019-05-14T05:15:08.524Z,4.50
2019-05-14T05:17:47.153Z,4.73
2019-05-14T05:20:12.604Z,1.60
2019-05-14T05:22:43.359Z,4.40
2019-05-14T05:25:14.251Z,4.67
2019-05-14T05:27:45.108Z,1.80
2019-05-14T05:30:16.188Z,4.67
2019-05-14T05:32:49.250Z,1.57
2019-05-14T05:35:20.557Z,3.77
2019-05-14T05:37:51.523Z,2.27
2019-05-14T05:40:24.030Z,2.40
2019-05-14T05:42:54.832Z,4.20
2019-05-14T05:45:25.566Z,2.43
2019-05-14T05:48:01.003Z,2.30
2019-05-14T05:50:28.915Z,4.23
2019-05-14T05:52:59.880Z,1.87
2019-05-14T05:55:30.657Z,3.13
2019-05-14T05:58:01.642Z,1.53
2019-05-14T06:00:35.418Z,1.33
2019-05-14T06:03:10.248Z,3.00
2019-05-14T06:05:39.108Z,3.77
2019-05-14T06:08:11.527Z,2.37
2019-05-14T06:10:42.313Z,2.50
2019-05-14T06:13:14.070Z,9.63
2019-05-14T06:15:49.533Z,3.63
2019-05-14T06:18:22.110Z,2.50
2019-05-14T06:20:53.403Z,1.77
2019-05-14T06:23:24.374Z,2.40
2019-05-14T06:25:55.014Z,3.53
2019-05-14T06:28:32.175Z,5.33
2019-05-14T06:30:59.130Z,3.00
2019-05-14T06:33:29.937Z,2.27
2019-05-14T06:36:00.763Z,2.00
2019-05-14T06:38:32.730Z,1.53
2019-05-14T06:41:03.474Z,2.47
2019-05-14T06:43:34.300Z,1.33
2019-05-14T06:46:05.202Z,4.10
2019-05-14T06:48:39.308Z,2.83
2019-05-14T06:51:09.401Z,4.60
2019-05-14T06:53:40.337Z,3.90
2019-05-14T06:56:11.919Z,4.35
2019-05-14T06:58:49.198Z,2.02
2019-05-14T07:01:21.409Z,1.70
2019-05-14T07:03:52.281Z,2.05
2019-05-14T07:06:23.083Z,3.42
2019-05-14T07:08:55.329Z,1.32
2019-05-14T07:11:26.196Z,2.35
2019-05-14T07:13:58.073Z,1.17
2019-05-14T07:16:29.076Z,2.75
2019-05-14T07:19:01.113Z,1.95
2019-05-14T07:21:31.859Z,2.80
2019-05-14T07:24:02.720Z,5.05
2019-05-14T07:26:33.691Z,2.52
2019-05-14T07:29:11.253Z,2.67
2019-05-14T07:31:38.635Z,1.37
2019-05-14T07:34:10.601Z,2.10
2019-05-14T07:36:41.486Z,4.30
2019-05-14T07:39:13.645Z,3.67
2019-05-14T07:41:44.559Z,1.50
2019-05-14T07:44:15.431Z,4.33
2019-05-14T07:46:48.168Z,3.37
2019-05-14T07:49:18.616Z,4.08
2019-05-14T07:51:49.331Z,1.67
2019-05-14T07:54:20.277Z,2.50
2019-05-14T07:56:52.901Z,2.02
2019-05-14T07:59:24.551Z,2.50
2019-05-14T08:01:55.300Z,4.78
2019-05-14T08:04:26.174Z,2.20
2019-05-14T08:06:58.296Z,2.17
2019-05-14T08:09:30.695Z,1.55
2019-05-14T08:12:01.527Z,2.50
2019-05-14T08:14:42.614Z,1.75
2019-05-14T08:17:05.032Z,7.28
2019-05-14T08:19:38.637Z,4.42
2019-05-14T08:22:09.799Z,1.40
2019-05-14T08:24:40.773Z,3.10
2019-05-14T08:27:11.530Z,2.92
2019-05-14T08:29:42.603Z,2.17
2019-05-14T08:32:13.513Z,1.80
2019-05-14T08:34:44.339Z,3.98
2019-05-14T08:37:15.137Z,3.60
2019-05-14T08:39:48.593Z,2.05
2019-05-14T08:42:19.679Z,1.15
2019-05-14T08:44:52.288Z,1.40
2019-05-14T08:47:24.118Z,2.17
2019-05-14T08:49:54.919Z,7.00
2019-05-14T08:52:28.578Z,0.70
2019-05-14T08:55:07.289Z,3.00
2019-05-14T08:57:30.858Z,3.65
2019-05-14T09:00:04.189Z,1.00
2019-05-14T09:02:35.926Z,3.00
2019-05-14T09:05:10.231Z,4.95
2019-05-14T09:07:40.101Z,3.67
2019-05-14T09:10:12.145Z,2.10
2019-05-14T09:12:44.629Z,3.67
2019-05-14T09:15:15.504Z,2.27
2019-05-14T09:17:48.535Z,2.45
2019-05-14T09:20:19.144Z,2.12
2019-05-14T09:22:49.974Z,4.08
2019-05-14T09:25:20.916Z,2.95
2019-05-14T09:27:51.757Z,1.47
2019-05-14T09:30:22.890Z,2.67
2019-05-14T09:32:53.864Z,2.62
2019-05-14T09:35:25.229Z,1.70
2019-05-14T09:37:59.267Z,1.95
2019-05-14T09:40:29.852Z,1.00
2019-05-14T09:43:02.326Z,2.15
2019-05-14T09:45:33.467Z,1.87
2019-05-14T09:48:04.744Z,7.97
2019-05-14T09:50:38.135Z,1.50
2019-05-14T09:53:09.857Z,3.50
2019-05-14T09:55:41.614Z,3.15
2019-05-14T09:58:13.039Z,1.20
2019-05-14T10:00:45.360Z,1.22
2019-05-14T10:03:19.251Z,2.65
2019-05-14T10:05:50.994Z,6.28
2019-05-14T10:08:22.148Z,4.10
2019-05-14T10:10:55.033Z,1.62
2019-05-14T10:13:28.157Z,3.17
2019-05-14T10:15:59.062Z,4.10
2019-05-14T10:18:30.508Z,0.70
2019-05-14T10:21:02.062Z,3.30
2019-05-14T10:23:33.308Z,3.50
2019-05-14T10:26:04.347Z,2.27
2019-05-14T10:28:35.054Z,1.00
2019-05-14T10:31:09.173Z,3.22
2019-05-14T10:33:38.456Z,1.55
2019-05-14T10:36:09.439Z,1.07
2019-05-14T10:38:40.180Z,1.30
2019-05-14T10:41:12.607Z,1.60
2019-05-14T10:43:43.471Z,2.60
2019-05-14T10:46:14.579Z,1.37
2019-05-14T10:48:45.859Z,1.65
2019-05-14T10:51:18.996Z,2.47
2019-05-14T10:53:49.851Z,2.87
2019-05-14T10:56:21.743Z,8.38
2019-05-14T10:58:54.703Z,1.40
2019-05-14T11:01:25.414Z,2.33
2019-05-14T11:03:56.155Z,1.50
2019-05-14T11:06:29.112Z,2.80
2019-05-14T11:08:59.302Z,1.10
2019-05-14T11:11:31.417Z,4.78
2019-05-14T11:14:02.308Z,3.20
2019-05-14T11:16:33.242Z,3.22
2019-05-14T11:19:04.064Z,4.83
2019-05-14T11:21:35.015Z,2.72
2019-05-14T11:24:05.921Z,2.37
2019-05-14T11:26:39.188Z,2.17
2019-05-14T11:29:09.271Z,2.12
2019-05-14T11:31:41.533Z,1.75
2019-05-14T11:34:12.331Z,2.45
2019-05-14T11:36:43.044Z,2.33
2019-05-14T11:39:13.817Z,1.92
2019-05-14T11:41:44.637Z,2.37
2019-05-14T11:44:15.316Z,6.03
2019-05-14T11:46:52.510Z,3.33
2019-05-14T11:49:19.427Z,2.02
2019-05-14T11:52:06.817Z,1.57
2019-05-14T11:54:23.866Z,1.37
2019-05-14T11:56:54.790Z,2.95
2019-05-14T11:59:25.711Z,3.25
2019-05-14T12:01:59.299Z,2.98
2019-05-14T12:04:30.418Z,2.50
2019-05-14T12:07:01.218Z,0.65
2019-05-14T12:09:31.959Z,0.53
2019-05-14T12:12:03.936Z,0.95
2019-05-14T12:14:34.949Z,1.42
2019-05-14T12:17:09.308Z,1.20
2019-05-14T12:19:43.268Z,5.10
2019-05-14T12:22:12.378Z,1.45
2019-05-14T12:24:43.226Z,3.33
2019-05-14T12:27:14.085Z,2.50
2019-05-14T12:29:44.984Z,1.82
2019-05-14T12:32:18.710Z,2.60
2019-05-14T12:34:48.848Z,0.93
2019-05-14T12:37:21.076Z,1.15
2019-05-14T12:39:51.908Z,2.25
2019-05-14T12:42:22.846Z,2.62
2019-05-14T12:44:53.682Z,2.90
2019-05-14T12:47:24.620Z,2.08
2019-05-14T12:49:55.344Z,2.33
2019-05-14T12:52:26.381Z,2.58
2019-05-14T12:54:59.741Z,0.93
2019-05-14T12:57:30.143Z,2.50
2019-05-14T13:00:01.068Z,3.10
2019-05-14T13:02:31.896Z,1.95
2019-05-14T13:05:03.333Z,1.55
2019-05-14T13:07:35.429Z,1.80
2019-05-14T13:10:09.200Z,1.40
2019-05-14T13:12:40.213Z,1.92
2019-05-14T13:15:12.177Z,2.20
2019-05-14T13:17:44.358Z,1.15
2019-05-14T13:20:18.368Z,3.20
2019-05-14T13:22:50.247Z,2.50
2019-05-14T13:25:20.971Z,3.47
2019-05-14T13:27:53.085Z,0.82
2019-05-14T13:30:23.955Z,1.35
2019-05-14T13:32:59.085Z,4.70
2019-05-14T13:35:29.336Z,4.03
2019-05-14T13:38:01.811Z,3.62
2019-05-14T13:40:32.710Z,3.05
2019-05-14T13:43:03.564Z,1.57
2019-05-14T13:45:34.389Z,2.52
2019-05-14T13:48:05.358Z,1.92
2019-05-14T13:50:39.497Z,1.42
2019-05-14T13:53:12.899Z,1.15
2019-05-14T13:55:46.172Z,2.85
2019-05-14T13:58:13.924Z,1.25
2019-05-14T14:00:45.181Z,2.12
2019-05-14T14:03:19.695Z,2.92
2019-05-14T14:05:50.084Z,0.50
2019-05-14T14:08:21.288Z,1.65
2019-05-14T14:10:54.140Z,2.80
2019-05-14T14:13:28.535Z,1.25
2019-05-14T14:15:58.954Z,2.15
2019-05-14T14:18:30.033Z,0.40
2019-05-14T14:21:00.832Z,3.60
2019-05-14T14:23:31.800Z,7.30
2019-05-14T14:26:02.743Z,5.22
2019-05-14T14:28:33.645Z,0.90
2019-05-14T14:31:07.434Z,1.05
2019-05-14T14:33:39.132Z,2.70
2019-05-14T14:36:09.442Z,2.15
2019-05-14T14:38:43.357Z,2.65
2019-05-14T14:41:14.178Z,5.28
2019-05-14T14:43:45.035Z,10.60
2019-05-14T14:46:15.958Z,2.22
2019-05-14T14:48:49.440Z,4.58
2019-05-14T14:51:20.497Z,1.57
2019-05-14T14:53:59.794Z,1.62
2019-05-14T14:56:23.686Z,0.68
2019-05-14T14:58:54.571Z,3.12
2019-05-14T15:01:25.363Z,3.98
2019-05-14T15:03:56.196Z,1.70
2019-05-14T15:06:30.355Z,1.55
2019-05-14T15:08:59.443Z,3.70
2019-05-14T15:11:30.262Z,3.50
2019-05-14T15:14:02.026Z,4.78
2019-05-14T15:16:34.077Z,2.40
2019-05-14T15:19:05.032Z,1.98
2019-05-14T15:21:37.274Z,1.42
2019-05-14T15:24:14.752Z,3.00
2019-05-14T15:26:40.519Z,2.25
2019-05-14T15:29:11.548Z,3.55
2019-05-14T15:31:42.950Z,1.62
2019-05-14T15:34:14.042Z,4.22
2019-05-14T15:36:49.339Z,0.68
2019-05-14T15:39:22.412Z,4.78
2019-05-14T15:41:52.047Z,2.10
2019-05-14T15:44:24.278Z,1.27
2019-05-14T15:46:58.756Z,5.12
2019-05-14T15:49:29.650Z,0.85
2019-05-14T15:52:00.625Z,3.70
2019-05-14T15:54:42.204Z,0.90
2019-05-14T15:57:04.358Z,0.90
2019-05-14T15:59:35.809Z,2.90
2019-05-14T16:02:09.337Z,0.82
2019-05-14T16:04:40.554Z,3.15
2019-05-14T16:07:12.748Z,3.33
2019-05-14T16:09:45.076Z,0.98
2019-05-14T16:12:16.229Z,0.40
2019-05-14T16:14:49.642Z,0.55
2019-05-14T16:17:24.868Z,1.02
2019-05-14T16:19:55.116Z,3.35
2019-05-14T16:22:29.170Z,8.48
2019-05-14T16:25:01.051Z,3.83
2019-05-14T16:27:35.034Z,5.58
2019-05-14T16:30:09.974Z,4.37
2019-05-14T16:32:41.389Z,1.20
2019-05-14T16:35:12.853Z,0.93
2019-05-14T16:37:45.058Z,1.40
2019-05-14T16:40:19.030Z,1.92
2019-05-14T16:42:49.120Z,1.45
2019-05-14T16:45:20.884Z,2.35
2019-05-14T16:47:54.285Z,3.72
2019-05-14T16:50:25.622Z,4.45
2019-05-14T16:52:58.975Z,1.87
2019-05-14T16:55:30.617Z,2.25
2019-05-14T16:58:02.044Z,1.32
2019-05-14T17:00:34.808Z,1.25
2019-05-14T17:03:08.175Z,2.20
2019-05-14T17:05:39.158Z,3.30
2019-05-14T17:08:10.352Z,0.78
2019-05-14T17:10:41.288Z,1.15
2019-05-14T17:13:12.944Z,9.70
2019-05-14T17:15:43.851Z,0.82
2019-05-14T17:18:15.581Z,2.77
2019-05-14T17:20:48.679Z,4.95
2019-05-14T17:23:19.296Z,2.17
2019-05-14T17:25:51.286Z,0.65
2019-05-14T17:28:22.565Z,1.37
2019-05-14T17:30:53.893Z,1.95
2019-05-14T17:33:24.794Z,0.93
2019-05-14T17:35:58.664Z,2.42
2019-05-14T17:38:29.489Z,0.80
2019-05-14T17:41:02.549Z,2.95
2019-05-14T17:43:34.480Z,1.20
2019-05-14T17:46:09.474Z,2.33
2019-05-14T17:48:41.018Z,0.78
2019-05-14T17:51:13.577Z,2.20
2019-05-14T17:53:48.081Z,2.05
2019-05-14T17:56:22.874Z,2.75
2019-05-14T17:58:57.970Z,0.50
2019-05-14T18:01:31.274Z,0.53
2019-05-14T18:04:04.740Z,0.90
2019-05-14T18:06:36.532Z,1.63
2019-05-14T18:09:09.157Z,2.43
2019-05-14T18:11:42.233Z,2.00
2019-05-14T18:14:15.390Z,3.43
2019-05-14T18:16:47.202Z,1.00
2019-05-14T18:19:19.950Z,6.50
2019-05-14T18:21:52.842Z,1.57
2019-05-14T18:24:28.536Z,3.20
2019-05-14T18:27:01.690Z,1.80
2019-05-14T18:29:38.943Z,3.50
2019-05-14T18:32:10.711Z,3.40
2019-05-14T18:34:42.348Z,1.33
2019-05-14T18:37:18.073Z,3.60
2019-05-14T18:39:50.546Z,3.20
2019-05-14T18:42:29.670Z,4.50
2019-05-14T18:45:04.062Z,2.00
2019-05-14T18:47:41.278Z,3.27
2019-05-14T18:50:19.355Z,5.03
2019-05-14T18:52:52.719Z,4.23
2019-05-14T18:55:29.572Z,5.43
2019-05-14T18:58:03.455Z,9.73
2019-05-14T19:00:39.791Z,2.60
2019-05-14T19:03:14.316Z,1.13
2019-05-14T19:05:48.220Z,0.70
2019-05-14T19:08:21.042Z,2.10
2019-05-14T19:10:53.462Z,0.83
2019-05-14T19:13:28.158Z,0.93
2019-05-14T19:16:01.733Z,2.67
2019-05-14T19:18:33.762Z,0.70
2019-05-14T19:21:05.027Z,1.47
2019-05-14T19:23:38.513Z,1.80
2019-05-14T19:26:13.396Z,2.80
2019-05-14T19:28:48.376Z,2.07
2019-05-14T19:31:19.037Z,3.03
2019-05-14T19:33:49.999Z,9.53
2019-05-14T19:36:22.476Z,3.07
2019-05-14T19:38:53.309Z,1.37
2019-05-14T19:41:24.152Z,1.20
2019-05-14T19:43:54.981Z,0.80
2019-05-14T19:46:25.834Z,0.73
2019-05-14T19:48:59.090Z,1.20
2019-05-14T19:51:30.662Z,1.23
2019-05-14T19:54:01.575Z,1.23
2019-05-14T19:56:47.090Z,0.83
2019-05-14T19:59:08.874Z,1.00
2019-05-14T20:01:38.775Z,1.90
2019-05-14T20:04:09.739Z,1.10
2019-05-14T20:06:44.266Z,1.03
2019-05-14T20:09:17.762Z,0.40
2019-05-14T20:11:49.123Z,0.67
2019-05-14T20:14:20.245Z,4.03
2019-05-14T20:16:52.812Z,4.03
2019-05-14T20:19:23.687Z,1.83
2019-05-14T20:21:54.410Z,0.90
2019-05-14T20:24:25.550Z,1.33
2019-05-14T20:27:05.895Z,0.70
2019-05-14T20:29:29.233Z,1.57
2019-05-14T20:32:01.849Z,5.13
2019-05-14T20:34:36.012Z,1.03
2019-05-14T20:37:08.470Z,1.03
2019-05-14T20:39:39.428Z,1.17
2019-05-14T20:42:10.150Z,2.07
2019-05-14T20:44:41.101Z,0.63
2019-05-14T20:47:12.880Z,5.20
2019-05-14T20:49:43.446Z,11.80
2019-05-14T20:52:14.260Z,17.97
2019-05-14T20:54:45.011Z,39.77
2019-05-14T20:57:24.418Z,53.17
2019-05-14T20:59:48.336Z,78.40
2019-05-14T21:02:19.250Z,64.67
2019-05-14T21:04:54.520Z,41.33
2019-05-14T21:07:22.767Z,17.90
2019-05-14T21:09:53.800Z,8.17
2019-05-14T21:12:24.648Z,4.67
2019-05-14T21:14:55.676Z,2.90
2019-05-14T21:17:28.864Z,6.87
2019-05-14T21:19:59.654Z,3.57
2019-05-14T21:22:30.535Z,2.80
2019-05-14T21:25:01.578Z,2.90
2019-05-14T21:27:43.868Z,8.37
2019-05-14T21:30:09.106Z,2.43
2019-05-14T21:32:42.450Z,3.53
2019-05-14T21:35:11.925Z,1.57
2019-05-14T21:37:42.931Z,2.87
2019-05-14T21:40:14.718Z,1.10
2019-05-14T21:42:45.612Z,0.67
2019-05-14T21:45:18.100Z,0.80
2019-05-14T21:47:50.150Z,0.67
2019-05-14T21:50:20.786Z,1.43
2019-05-14T21:52:51.327Z,1.07
2019-05-14T21:55:22.249Z,1.00
2019-05-14T21:57:57.257Z,1.97
2019-05-14T22:00:34.877Z,1.27
2019-05-14T22:03:10.154Z,5.07
2019-05-14T22:05:39.927Z,1.03
2019-05-14T22:08:12.195Z,1.57
2019-05-14T22:10:43.130Z,1.00
2019-05-14T22:13:13.891Z,1.27
2019-05-14T22:15:44.858Z,0.90
2019-05-14T22:18:20.521Z,1.10
2019-05-14T22:20:50.813Z,1.60
2019-05-14T22:23:21.737Z,1.77
2019-05-14T22:25:52.634Z,0.70
2019-05-14T22:28:23.481Z,6.40
2019-05-14T22:30:54.422Z,1.80
2019-05-14T22:33:25.312Z,2.20
2019-05-14T22:35:57.921Z,2.50
2019-05-14T22:38:29.302Z,2.47
2019-05-14T22:41:00.580Z,2.37
2019-05-14T22:43:31.568Z,2.50
2019-05-14T22:46:02.503Z,1.53
2019-05-14T22:48:33.442Z,3.33
2019-05-14T22:51:04.948Z,1.20
2019-05-14T22:53:36.009Z,3.30
2019-05-14T22:56:08.343Z,1.40
2019-05-14T22:58:43.365Z,3.33
2019-05-14T23:01:15.362Z,1.00
2019-05-14T23:03:48.720Z,2.67
2019-05-14T23:06:19.738Z,1.97
2019-05-14T23:08:50.858Z,1.03
2019-05-14T23:11:22.416Z,1.37
2019-05-14T23:13:53.674Z,1.43
2019-05-14T23:16:34.458Z,0.90
2019-05-14T23:18:59.136Z,1.90
2019-05-14T23:21:30.279Z,1.97
2019-05-14T23:24:01.724Z,2.80
2019-05-14T23:26:34.399Z,2.13
2019-05-14T23:29:05.953Z,0.60
2019-05-14T23:31:38.499Z,1.47
2019-05-14T23:34:10.426Z,2.83
2019-05-14T23:36:44.725Z,2.47
2019-05-14T23:39:16.360Z,1.20
2019-05-14T23:41:48.780Z,2.87
2019-05-14T23:44:20.076Z,2.83
2019-05-14T23:46:53.530Z,1.63
2019-05-14T23:49:24.599Z,1.87
2019-05-14T23:51:55.452Z,1.77
2019-05-14T23:54:26.288Z,2.63
2019-05-14T23:56:58.401Z,3.47
2019-05-14T23:59:29.438Z,2.87
